sensor_id;sensor_type;location;lat;lon;timestamp;P1;durP1;ratioP1;P2;durP2;ratioP2
55720;SDS011;41626;53.098;6.168;2023-01-04T00:01:03;9.40;;;2.22;;
55720;SDS011;41626;53.098;6.168;2023-01-04T00:03:30;12.27;;;3.27;;
55720;SDS011;41626;53.098;6.168;2023-01-04T00:05:57;11.35;;;3.20;;
55720;SDS011;41626;53.098;6.168;2023-01-04T00:08:24;7.50;;;2.17;;
55720;SDS011;41626;53.098;6.168;2023-01-04T00:10:50;7.07;;;2.47;;
55720;SDS011;41626;53.098;6.168;2023-01-04T00:13:15;9.70;;;2.92;;
55720;SDS011;41626;53.098;6.168;2023-01-04T00:15:41;9.15;;;2.80;;
55720;SDS011;41626;53.098;6.168;2023-01-04T00:18:07;7.93;;;2.63;;
55720;SDS011;41626;53.098;6.168;2023-01-04T00:20:32;11.90;;;3.47;;
55720;SDS011;41626;53.098;6.168;2023-01-04T00:22:58;10.40;;;3.53;;
55720;SDS011;41626;53.098;6.168;2023-01-04T00:25:24;9.90;;;3.40;;
55720;SDS011;41626;53.098;6.168;2023-01-04T00:27:50;8.13;;;3.03;;
55720;SDS011;41626;53.098;6.168;2023-01-04T00:30:16;8.80;;;2.72;;
55720;SDS011;41626;53.098;6.168;2023-01-04T00:32:42;11.73;;;3.33;;
55720;SDS011;41626;53.098;6.168;2023-01-04T00:35:09;8.07;;;3.47;;
55720;SDS011;41626;53.098;6.168;2023-01-04T00:37:35;13.60;;;3.10;;
55720;SDS011;41626;53.098;6.168;2023-01-04T00:40:01;5.85;;;2.50;;
55720;SDS011;41626;53.098;6.168;2023-01-04T00:42:27;8.45;;;2.65;;
55720;SDS011;41626;53.098;6.168;2023-01-04T00:44:53;10.55;;;3.40;;
55720;SDS011;41626;53.098;6.168;2023-01-04T00:47:18;9.57;;;3.17;;
55720;SDS011;41626;53.098;6.168;2023-01-04T00:49:44;6.25;;;3.03;;
55720;SDS011;41626;53.098;6.168;2023-01-04T00:52:10;10.75;;;3.05;;
55720;SDS011;41626;53.098;6.168;2023-01-04T00:54:35;8.68;;;3.08;;
55720;SDS011;41626;53.098;6.168;2023-01-04T00:57:01;10.05;;;3.03;;
55720;SDS011;41626;53.098;6.168;2023-01-04T00:59:29;7.53;;;3.00;;
55720;SDS011;41626;53.098;6.168;2023-01-04T01:01:55;6.68;;;3.20;;
55720;SDS011;41626;53.098;6.168;2023-01-04T01:04:22;8.00;;;2.63;;
55720;SDS011;41626;53.098;6.168;2023-01-04T01:06:48;5.30;;;2.22;;
55720;SDS011;41626;53.098;6.168;2023-01-04T01:09:15;8.40;;;2.70;;
55720;SDS011;41626;53.098;6.168;2023-01-04T01:11:41;7.43;;;2.67;;
55720;SDS011;41626;53.098;6.168;2023-01-04T01:14:08;7.82;;;2.95;;
55720;SDS011;41626;53.098;6.168;2023-01-04T01:16:40;8.40;;;3.30;;
55720;SDS011;41626;53.098;6.168;2023-01-04T01:19:05;7.65;;;2.28;;
55720;SDS011;41626;53.098;6.168;2023-01-04T01:21:31;5.90;;;2.33;;
55720;SDS011;41626;53.098;6.168;2023-01-04T01:23:56;5.97;;;2.40;;
55720;SDS011;41626;53.098;6.168;2023-01-04T01:26:23;8.57;;;3.20;;
55720;SDS011;41626;53.098;6.168;2023-01-04T01:28:49;4.32;;;2.50;;
55720;SDS011;41626;53.098;6.168;2023-01-04T01:31:19;7.53;;;3.67;;
55720;SDS011;41626;53.098;6.168;2023-01-04T01:33:47;5.13;;;2.47;;
55720;SDS011;41626;53.098;6.168;2023-01-04T01:36:14;4.03;;;2.17;;
55720;SDS011;41626;53.098;6.168;2023-01-04T01:38:41;6.93;;;2.70;;
55720;SDS011;41626;53.098;6.168;2023-01-04T01:41:09;6.05;;;2.00;;
55720;SDS011;41626;53.098;6.168;2023-01-04T01:46:10;5.03;;;2.13;;
55720;SDS011;41626;53.098;6.168;2023-01-04T01:48:36;5.95;;;2.45;;
55720;SDS011;41626;53.098;6.168;2023-01-04T01:51:02;6.27;;;2.63;;
55720;SDS011;41626;53.098;6.168;2023-01-04T01:53:31;6.60;;;2.50;;
55720;SDS011;41626;53.098;6.168;2023-01-04T01:56:01;4.73;;;2.33;;
55720;SDS011;41626;53.098;6.168;2023-01-04T01:58:30;3.70;;;1.88;;
55720;SDS011;41626;53.098;6.168;2023-01-04T02:01:02;7.87;;;3.03;;
55720;SDS011;41626;53.098;6.168;2023-01-04T02:03:31;5.57;;;2.10;;
55720;SDS011;41626;53.098;6.168;2023-01-04T02:06:00;5.17;;;1.70;;
55720;SDS011;41626;53.098;6.168;2023-01-04T02:08:29;4.40;;;1.48;;
55720;SDS011;41626;53.098;6.168;2023-01-04T02:10:55;5.47;;;1.57;;
55720;SDS011;41626;53.098;6.168;2023-01-04T02:13:22;3.50;;;1.67;;
55720;SDS011;41626;53.098;6.168;2023-01-04T02:16:17;2.30;;;1.40;;
55720;SDS011;41626;53.098;6.168;2023-01-04T02:30:31;2.35;;;1.40;;
55720;SDS011;41626;53.098;6.168;2023-01-04T02:38:53;1.48;;;1.00;;
55720;SDS011;41626;53.098;6.168;2023-01-04T02:44:16;3.05;;;1.33;;
55720;SDS011;41626;53.098;6.168;2023-01-04T02:47:15;2.00;;;0.98;;
55720;SDS011;41626;53.098;6.168;2023-01-04T02:53:12;2.53;;;1.10;;
55720;SDS011;41626;53.098;6.168;2023-01-04T02:55:46;2.80;;;0.80;;
55720;SDS011;41626;53.098;6.168;2023-01-04T03:13:13;1.50;;;0.93;;
55720;SDS011;41626;53.098;6.168;2023-01-04T03:15:44;1.52;;;0.90;;
55720;SDS011;41626;53.098;6.168;2023-01-04T03:18:19;3.53;;;1.40;;
55720;SDS011;41626;53.098;6.168;2023-01-04T03:20:51;1.30;;;1.10;;
55720;SDS011;41626;53.098;6.168;2023-01-04T03:23:20;1.10;;;1.00;;
55720;SDS011;41626;53.098;6.168;2023-01-04T03:26:12;1.48;;;1.05;;
55720;SDS011;41626;53.098;6.168;2023-01-04T03:29:03;1.40;;;1.13;;
55720;SDS011;41626;53.098;6.168;2023-01-04T03:31:55;1.30;;;1.20;;
55720;SDS011;41626;53.098;6.168;2023-01-04T03:34:44;1.52;;;1.25;;
55720;SDS011;41626;53.098;6.168;2023-01-04T03:37:44;2.17;;;1.47;;
55720;SDS011;41626;53.098;6.168;2023-01-04T03:40:38;1.77;;;1.50;;
55720;SDS011;41626;53.098;6.168;2023-01-04T03:43:49;1.90;;;1.60;;
55720;SDS011;41626;53.098;6.168;2023-01-04T03:46:45;1.80;;;1.50;;
55720;SDS011;41626;53.098;6.168;2023-01-04T03:49:43;2.03;;;1.83;;
55720;SDS011;41626;53.098;6.168;2023-01-04T03:52:12;5.65;;;2.08;;
55720;SDS011;41626;53.098;6.168;2023-01-04T03:54:40;2.42;;;2.22;;
55720;SDS011;41626;53.098;6.168;2023-01-04T03:57:09;2.83;;;2.25;;
55720;SDS011;41626;53.098;6.168;2023-01-04T03:59:37;2.45;;;1.95;;
55720;SDS011;41626;53.098;6.168;2023-01-04T04:02:06;2.55;;;2.13;;
55720;SDS011;41626;53.098;6.168;2023-01-04T04:04:37;3.25;;;1.98;;
55720;SDS011;41626;53.098;6.168;2023-01-04T04:07:25;2.50;;;1.80;;
55720;SDS011;41626;53.098;6.168;2023-01-04T04:10:10;3.30;;;2.40;;
55720;SDS011;41626;53.098;6.168;2023-01-04T04:12:35;2.30;;;2.00;;
55720;SDS011;41626;53.098;6.168;2023-01-04T04:15:01;5.63;;;2.50;;
55720;SDS011;41626;53.098;6.168;2023-01-04T04:17:27;2.43;;;2.00;;
55720;SDS011;41626;53.098;6.168;2023-01-04T04:19:53;3.67;;;2.10;;
55720;SDS011;41626;53.098;6.168;2023-01-04T04:22:18;3.30;;;2.50;;
55720;SDS011;41626;53.098;6.168;2023-01-04T04:24:44;2.53;;;2.30;;
55720;SDS011;41626;53.098;6.168;2023-01-04T04:27:09;3.97;;;3.10;;
55720;SDS011;41626;53.098;6.168;2023-01-04T04:29:35;4.57;;;3.38;;
55720;SDS011;41626;53.098;6.168;2023-01-04T04:32:00;4.30;;;2.93;;
55720;SDS011;41626;53.098;6.168;2023-01-04T04:34:26;2.93;;;2.47;;
55720;SDS011;41626;53.098;6.168;2023-01-04T04:36:52;2.50;;;2.30;;
55720;SDS011;41626;53.098;6.168;2023-01-04T04:39:17;4.43;;;2.67;;
55720;SDS011;41626;53.098;6.168;2023-01-04T04:41:43;3.95;;;3.20;;
55720;SDS011;41626;53.098;6.168;2023-01-04T04:44:10;3.60;;;3.15;;
55720;SDS011;41626;53.098;6.168;2023-01-04T04:46:37;6.18;;;3.20;;
55720;SDS011;41626;53.098;6.168;2023-01-04T04:49:04;7.47;;;3.83;;
55720;SDS011;41626;53.098;6.168;2023-01-04T04:51:30;3.95;;;3.53;;
55720;SDS011;41626;53.098;6.168;2023-01-04T04:53:56;3.80;;;3.50;;
55720;SDS011;41626;53.098;6.168;2023-01-04T04:58:50;4.50;;;3.72;;
55720;SDS011;41626;53.098;6.168;2023-01-04T05:01:16;5.00;;;3.63;;
55720;SDS011;41626;53.098;6.168;2023-01-04T05:03:42;3.97;;;3.58;;
55720;SDS011;41626;53.098;6.168;2023-01-04T05:06:07;3.33;;;2.73;;
55720;SDS011;41626;53.098;6.168;2023-01-04T05:08:33;4.10;;;3.25;;
55720;SDS011;41626;53.098;6.168;2023-01-04T05:11:03;4.43;;;3.75;;
55720;SDS011;41626;53.098;6.168;2023-01-04T05:13:33;5.82;;;3.55;;
55720;SDS011;41626;53.098;6.168;2023-01-04T05:16:00;5.05;;;4.03;;
55720;SDS011;41626;53.098;6.168;2023-01-04T05:18:26;4.32;;;3.92;;
55720;SDS011;41626;53.098;6.168;2023-01-04T05:20:52;3.90;;;3.50;;
55720;SDS011;41626;53.098;6.168;2023-01-04T05:23:18;4.07;;;3.28;;
55720;SDS011;41626;53.098;6.168;2023-01-04T05:25:45;12.65;;;3.67;;
55720;SDS011;41626;53.098;6.168;2023-01-04T05:28:15;4.32;;;3.30;;
55720;SDS011;41626;53.098;6.168;2023-01-04T05:30:41;3.58;;;2.90;;
55720;SDS011;41626;53.098;6.168;2023-01-04T05:33:23;4.20;;;3.10;;
55720;SDS011;41626;53.098;6.168;2023-01-04T05:35:50;3.30;;;2.87;;
55720;SDS011;41626;53.098;6.168;2023-01-04T05:38:17;4.07;;;2.55;;
55720;SDS011;41626;53.098;6.168;2023-01-04T05:40:43;3.30;;;2.70;;
55720;SDS011;41626;53.098;6.168;2023-01-04T05:43:09;4.13;;;2.33;;
55720;SDS011;41626;53.098;6.168;2023-01-04T05:45:35;2.83;;;2.63;;
55720;SDS011;41626;53.098;6.168;2023-01-04T05:48:01;2.30;;;2.10;;
55720;SDS011;41626;53.098;6.168;2023-01-04T05:50:27;3.00;;;2.55;;
55720;SDS011;41626;53.098;6.168;2023-01-04T05:52:53;2.97;;;2.58;;
55720;SDS011;41626;53.098;6.168;2023-01-04T05:55:18;2.58;;;2.20;;
55720;SDS011;41626;53.098;6.168;2023-01-04T05:57:44;3.42;;;2.10;;
55720;SDS011;41626;53.098;6.168;2023-01-04T06:00:10;3.38;;;2.35;;
55720;SDS011;41626;53.098;6.168;2023-01-04T06:02:37;4.32;;;2.17;;
55720;SDS011;41626;53.098;6.168;2023-01-04T06:05:03;3.50;;;1.77;;
55720;SDS011;41626;53.098;6.168;2023-01-04T06:07:29;4.05;;;2.20;;
55720;SDS011;41626;53.098;6.168;2023-01-04T06:09:55;5.20;;;2.30;;
55720;SDS011;41626;53.098;6.168;2023-01-04T06:12:21;6.65;;;2.25;;
55720;SDS011;41626;53.098;6.168;2023-01-04T06:14:46;4.18;;;1.77;;
55720;SDS011;41626;53.098;6.168;2023-01-04T06:17:12;3.92;;;1.73;;
55720;SDS011;41626;53.098;6.168;2023-01-04T06:19:38;7.00;;;2.20;;
55720;SDS011;41626;53.098;6.168;2023-01-04T06:22:03;5.20;;;2.10;;
55720;SDS011;41626;53.098;6.168;2023-01-04T06:24:29;5.63;;;2.20;;
55720;SDS011;41626;53.098;6.168;2023-01-04T06:26:55;7.75;;;2.40;;
55720;SDS011;41626;53.098;6.168;2023-01-04T06:29:21;4.93;;;2.30;;
55720;SDS011;41626;53.098;6.168;2023-01-04T06:31:46;5.73;;;2.43;;
55720;SDS011;41626;53.098;6.168;2023-01-04T06:34:13;5.80;;;2.23;;
55720;SDS011;41626;53.098;6.168;2023-01-04T06:36:39;4.05;;;2.15;;
55720;SDS011;41626;53.098;6.168;2023-01-04T06:39:05;7.30;;;2.55;;
55720;SDS011;41626;53.098;6.168;2023-01-04T06:41:31;4.72;;;2.10;;
55720;SDS011;41626;53.098;6.168;2023-01-04T06:43:58;7.90;;;2.30;;
55720;SDS011;41626;53.098;6.168;2023-01-04T06:46:24;7.33;;;2.90;;
55720;SDS011;41626;53.098;6.168;2023-01-04T06:48:50;6.43;;;2.40;;
55720;SDS011;41626;53.098;6.168;2023-01-04T06:51:17;8.90;;;3.08;;
55720;SDS011;41626;53.098;6.168;2023-01-04T06:53:44;6.38;;;2.78;;
55720;SDS011;41626;53.098;6.168;2023-01-04T06:56:09;20.37;;;3.30;;
55720;SDS011;41626;53.098;6.168;2023-01-04T06:58:35;5.53;;;2.85;;
55720;SDS011;41626;53.098;6.168;2023-01-04T07:01:01;8.02;;;3.00;;
55720;SDS011;41626;53.098;6.168;2023-01-04T07:03:27;7.53;;;2.97;;
55720;SDS011;41626;53.098;6.168;2023-01-04T07:05:52;6.40;;;3.17;;
55720;SDS011;41626;53.098;6.168;2023-01-04T07:08:18;11.67;;;3.93;;
55720;SDS011;41626;53.098;6.168;2023-01-04T07:10:44;8.33;;;3.20;;
55720;SDS011;41626;53.098;6.168;2023-01-04T07:13:10;9.25;;;3.50;;
55720;SDS011;41626;53.098;6.168;2023-01-04T07:15:36;7.03;;;3.60;;
55720;SDS011;41626;53.098;6.168;2023-01-04T07:18:02;8.30;;;3.10;;
55720;SDS011;41626;53.098;6.168;2023-01-04T07:20:28;10.10;;;3.35;;
55720;SDS011;41626;53.098;6.168;2023-01-04T07:22:53;8.50;;;3.10;;
55720;SDS011;41626;53.098;6.168;2023-01-04T07:25:19;8.45;;;3.15;;
55720;SDS011;41626;53.098;6.168;2023-01-04T07:27:52;9.82;;;3.35;;
55720;SDS011;41626;53.098;6.168;2023-01-04T07:30:19;6.53;;;2.47;;
55720;SDS011;41626;53.098;6.168;2023-01-04T07:32:45;9.27;;;3.20;;
55720;SDS011;41626;53.098;6.168;2023-01-04T07:35:11;5.95;;;2.60;;
55720;SDS011;41626;53.098;6.168;2023-01-04T07:37:37;8.32;;;3.08;;
55720;SDS011;41626;53.098;6.168;2023-01-04T07:40:02;10.50;;;3.30;;
55720;SDS011;41626;53.098;6.168;2023-01-04T07:42:29;9.70;;;3.63;;
55720;SDS011;41626;53.098;6.168;2023-01-04T07:44:55;13.33;;;3.57;;
55720;SDS011;41626;53.098;6.168;2023-01-04T07:47:20;9.43;;;3.30;;
55720;SDS011;41626;53.098;6.168;2023-01-04T07:49:46;11.93;;;3.20;;
55720;SDS011;41626;53.098;6.168;2023-01-04T07:52:15;9.90;;;2.75;;
55720;SDS011;41626;53.098;6.168;2023-01-04T07:54:40;11.70;;;2.90;;
55720;SDS011;41626;53.098;6.168;2023-01-04T07:57:06;7.35;;;3.38;;
55720;SDS011;41626;53.098;6.168;2023-01-04T07:59:32;7.60;;;2.90;;
55720;SDS011;41626;53.098;6.168;2023-01-04T08:01:58;7.67;;;2.57;;
55720;SDS011;41626;53.098;6.168;2023-01-04T08:04:23;9.40;;;2.95;;
55720;SDS011;41626;53.098;6.168;2023-01-04T08:06:49;8.32;;;3.35;;
55720;SDS011;41626;53.098;6.168;2023-01-04T08:09:15;8.75;;;2.70;;
55720;SDS011;41626;53.098;6.168;2023-01-04T08:11:42;8.10;;;2.42;;
55720;SDS011;41626;53.098;6.168;2023-01-04T08:14:08;6.60;;;2.85;;
55720;SDS011;41626;53.098;6.168;2023-01-04T08:16:36;8.17;;;2.70;;
55720;SDS011;41626;53.098;6.168;2023-01-04T08:19:07;7.75;;;2.40;;
55720;SDS011;41626;53.098;6.168;2023-01-04T08:21:35;7.88;;;2.30;;
55720;SDS011;41626;53.098;6.168;2023-01-04T08:24:02;8.20;;;2.20;;
55720;SDS011;41626;53.098;6.168;2023-01-04T08:26:28;8.48;;;2.65;;
55720;SDS011;41626;53.098;6.168;2023-01-04T08:28:54;6.18;;;2.13;;
55720;SDS011;41626;53.098;6.168;2023-01-04T08:31:25;9.55;;;2.83;;
55720;SDS011;41626;53.098;6.168;2023-01-04T08:33:52;11.52;;;2.40;;
55720;SDS011;41626;53.098;6.168;2023-01-04T08:36:20;12.75;;;3.00;;
55720;SDS011;41626;53.098;6.168;2023-01-04T08:38:47;8.63;;;2.63;;
55720;SDS011;41626;53.098;6.168;2023-01-04T08:41:15;10.50;;;3.00;;
55720;SDS011;41626;53.098;6.168;2023-01-04T08:43:41;10.18;;;2.58;;
55720;SDS011;41626;53.098;6.168;2023-01-04T08:46:07;12.38;;;2.63;;
55720;SDS011;41626;53.098;6.168;2023-01-04T08:48:33;14.52;;;3.78;;
55720;SDS011;41626;53.098;6.168;2023-01-04T08:51:00;9.73;;;3.10;;
55720;SDS011;41626;53.098;6.168;2023-01-04T08:53:26;12.05;;;2.80;;
55720;SDS011;41626;53.098;6.168;2023-01-04T08:55:52;10.48;;;2.50;;
55720;SDS011;41626;53.098;6.168;2023-01-04T08:58:19;8.98;;;2.17;;
55720;SDS011;41626;53.098;6.168;2023-01-04T09:00:46;11.52;;;2.75;;
55720;SDS011;41626;53.098;6.168;2023-01-04T09:03:12;12.27;;;3.60;;
55720;SDS011;41626;53.098;6.168;2023-01-04T09:05:37;9.25;;;2.47;;
55720;SDS011;41626;53.098;6.168;2023-01-04T09:08:03;8.80;;;2.95;;
55720;SDS011;41626;53.098;6.168;2023-01-04T09:10:30;8.27;;;2.33;;
55720;SDS011;41626;53.098;6.168;2023-01-04T09:12:55;10.15;;;2.88;;
55720;SDS011;41626;53.098;6.168;2023-01-04T09:15:21;9.20;;;3.07;;
55720;SDS011;41626;53.098;6.168;2023-01-04T09:17:47;12.80;;;3.07;;
55720;SDS011;41626;53.098;6.168;2023-01-04T09:20:14;11.07;;;3.17;;
55720;SDS011;41626;53.098;6.168;2023-01-04T09:22:40;12.30;;;3.40;;
55720;SDS011;41626;53.098;6.168;2023-01-04T09:25:05;10.20;;;2.80;;
55720;SDS011;41626;53.098;6.168;2023-01-04T09:27:31;5.47;;;2.10;;
55720;SDS011;41626;53.098;6.168;2023-01-04T09:29:58;9.40;;;2.55;;
55720;SDS011;41626;53.098;6.168;2023-01-04T09:32:24;10.73;;;3.53;;
55720;SDS011;41626;53.098;6.168;2023-01-04T09:34:50;9.90;;;2.70;;
55720;SDS011;41626;53.098;6.168;2023-01-04T09:37:16;10.23;;;2.70;;
55720;SDS011;41626;53.098;6.168;2023-01-04T09:39:42;11.50;;;3.17;;
55720;SDS011;41626;53.098;6.168;2023-01-04T09:42:20;7.78;;;2.78;;
55720;SDS011;41626;53.098;6.168;2023-01-04T09:44:53;9.93;;;2.70;;
55720;SDS011;41626;53.098;6.168;2023-01-04T09:50:16;14.20;;;3.10;;
55720;SDS011;41626;53.098;6.168;2023-01-04T09:53:05;12.48;;;3.15;;
55720;SDS011;41626;53.098;6.168;2023-01-04T09:55:43;11.67;;;3.43;;
55720;SDS011;41626;53.098;6.168;2023-01-04T09:58:19;11.80;;;3.53;;
55720;SDS011;41626;53.098;6.168;2023-01-04T10:01:02;17.00;;;3.60;;
55720;SDS011;41626;53.098;6.168;2023-01-04T10:03:32;14.77;;;4.30;;
55720;SDS011;41626;53.098;6.168;2023-01-04T10:06:01;18.60;;;4.38;;
55720;SDS011;41626;53.098;6.168;2023-01-04T10:08:27;19.15;;;4.10;;
55720;SDS011;41626;53.098;6.168;2023-01-04T10:19:27;24.30;;;5.35;;
55720;SDS011;41626;53.098;6.168;2023-01-04T10:22:15;20.40;;;4.53;;
55720;SDS011;41626;53.098;6.168;2023-01-04T10:33:11;22.90;;;5.47;;
55720;SDS011;41626;53.098;6.168;2023-01-04T10:35:39;30.05;;;7.25;;
55720;SDS011;41626;53.098;6.168;2023-01-04T10:38:18;28.95;;;6.20;;
55720;SDS011;41626;53.098;6.168;2023-01-04T10:40:50;27.90;;;7.40;;
55720;SDS011;41626;53.098;6.168;2023-01-04T10:51:24;32.17;;;7.28;;
55720;SDS011;41626;53.098;6.168;2023-01-04T10:54:00;31.05;;;7.93;;
55720;SDS011;41626;53.098;6.168;2023-01-04T10:56:39;36.33;;;8.90;;
55720;SDS011;41626;53.098;6.168;2023-01-04T11:01:55;31.27;;;8.45;;
55720;SDS011;41626;53.098;6.168;2023-01-04T11:07:01;33.83;;;7.40;;
55720;SDS011;41626;53.098;6.168;2023-01-04T11:09:33;34.92;;;7.00;;
55720;SDS011;41626;53.098;6.168;2023-01-04T11:12:22;46.35;;;11.05;;
55720;SDS011;41626;53.098;6.168;2023-01-04T11:14:51;37.45;;;8.70;;
55720;SDS011;41626;53.098;6.168;2023-01-04T11:17:17;35.10;;;8.40;;
55720;SDS011;41626;53.098;6.168;2023-01-04T11:19:45;40.47;;;9.15;;
55720;SDS011;41626;53.098;6.168;2023-01-04T11:22:14;37.97;;;9.00;;
55720;SDS011;41626;53.098;6.168;2023-01-04T11:24:52;35.80;;;6.40;;
55720;SDS011;41626;53.098;6.168;2023-01-04T11:27:26;38.38;;;7.25;;
55720;SDS011;41626;53.098;6.168;2023-01-04T11:30:04;30.15;;;6.53;;
55720;SDS011;41626;53.098;6.168;2023-01-04T11:33:07;25.85;;;5.90;;
55720;SDS011;41626;53.098;6.168;2023-01-04T11:35:44;23.92;;;6.07;;
55720;SDS011;41626;53.098;6.168;2023-01-04T11:38:16;29.87;;;6.50;;
55720;SDS011;41626;53.098;6.168;2023-01-04T11:43:35;25.73;;;6.63;;
55720;SDS011;41626;53.098;6.168;2023-01-04T11:46:18;24.85;;;6.18;;
55720;SDS011;41626;53.098;6.168;2023-01-04T11:48:48;29.02;;;6.57;;
55720;SDS011;41626;53.098;6.168;2023-01-04T11:56:26;28.05;;;5.97;;
55720;SDS011;41626;53.098;6.168;2023-01-04T12:01:37;26.40;;;6.60;;
55720;SDS011;41626;53.098;6.168;2023-01-04T12:04:21;21.23;;;4.47;;
55720;SDS011;41626;53.098;6.168;2023-01-04T12:07:01;19.45;;;4.10;;
55720;SDS011;41626;53.098;6.168;2023-01-04T12:09:39;21.80;;;5.05;;
55720;SDS011;41626;53.098;6.168;2023-01-04T12:12:05;21.93;;;6.10;;
55720;SDS011;41626;53.098;6.168;2023-01-04T12:14:31;16.33;;;4.23;;
55720;SDS011;41626;53.098;6.168;2023-01-04T12:17:02;17.35;;;3.75;;
55720;SDS011;41626;53.098;6.168;2023-01-04T12:19:29;12.15;;;3.92;;
55720;SDS011;41626;53.098;6.168;2023-01-04T12:21:56;15.23;;;3.75;;
55720;SDS011;41626;53.098;6.168;2023-01-04T12:24:25;15.73;;;4.15;;
55720;SDS011;41626;53.098;6.168;2023-01-04T12:26:53;15.98;;;4.70;;
55720;SDS011;41626;53.098;6.168;2023-01-04T12:31:49;10.60;;;2.67;;
55720;SDS011;41626;53.098;6.168;2023-01-04T12:34:47;13.35;;;3.10;;
55720;SDS011;41626;53.098;6.168;2023-01-04T12:45:39;12.80;;;3.53;;
55720;SDS011;41626;53.098;6.168;2023-01-04T12:54:07;16.10;;;3.65;;
55720;SDS011;41626;53.098;6.168;2023-01-04T12:59:35;13.57;;;3.85;;
55720;SDS011;41626;53.098;6.168;2023-01-04T13:02:17;17.55;;;4.40;;
55720;SDS011;41626;53.098;6.168;2023-01-04T13:04:44;17.92;;;4.88;;
55720;SDS011;41626;53.098;6.168;2023-01-04T13:07:14;20.20;;;4.47;;
55720;SDS011;41626;53.098;6.168;2023-01-04T13:09:50;17.08;;;4.82;;
55720;SDS011;41626;53.098;6.168;2023-01-04T13:15:07;19.67;;;4.78;;
55720;SDS011;41626;53.098;6.168;2023-01-04T13:17:49;24.77;;;6.63;;
55720;SDS011;41626;53.098;6.168;2023-01-04T13:20:18;22.80;;;5.78;;
55720;SDS011;41626;53.098;6.168;2023-01-04T13:22:53;21.20;;;6.07;;
55720;SDS011;41626;53.098;6.168;2023-01-04T13:25:20;24.13;;;6.33;;
55720;SDS011;41626;53.098;6.168;2023-01-04T13:28:01;37.93;;;7.77;;
55720;SDS011;41626;53.098;6.168;2023-01-04T13:30:35;22.85;;;7.28;;
55720;SDS011;41626;53.098;6.168;2023-01-04T13:33:06;19.45;;;4.47;;
55720;SDS011;41626;53.098;6.168;2023-01-04T13:35:33;21.40;;;6.22;;
55720;SDS011;41626;53.098;6.168;2023-01-04T13:37:59;20.50;;;4.82;;
55720;SDS011;41626;53.098;6.168;2023-01-04T13:48:35;24.50;;;6.28;;
55720;SDS011;41626;53.098;6.168;2023-01-04T13:51:16;20.90;;;4.75;;
55720;SDS011;41626;53.098;6.168;2023-01-04T13:53:51;21.42;;;6.70;;
55720;SDS011;41626;53.098;6.168;2023-01-04T13:56:23;25.10;;;5.75;;
55720;SDS011;41626;53.098;6.168;2023-01-04T13:58:50;22.23;;;5.73;;
55720;SDS011;41626;53.098;6.168;2023-01-04T14:01:18;27.27;;;6.57;;
55720;SDS011;41626;53.098;6.168;2023-01-04T14:03:49;25.58;;;5.90;;
55720;SDS011;41626;53.098;6.168;2023-01-04T14:06:25;26.60;;;5.78;;
55720;SDS011;41626;53.098;6.168;2023-01-04T14:08:58;29.02;;;5.20;;
55720;SDS011;41626;53.098;6.168;2023-01-04T14:11:32;26.42;;;6.05;;
55720;SDS011;41626;53.098;6.168;2023-01-04T14:16:49;25.67;;;6.60;;
55720;SDS011;41626;53.098;6.168;2023-01-04T14:24:51;32.22;;;6.88;;
55720;SDS011;41626;53.098;6.168;2023-01-04T14:27:28;25.15;;;5.32;;
55720;SDS011;41626;53.098;6.168;2023-01-04T14:29:55;21.48;;;6.10;;
55720;SDS011;41626;53.098;6.168;2023-01-04T14:32:20;20.80;;;6.17;;
55720;SDS011;41626;53.098;6.168;2023-01-04T14:34:46;27.43;;;6.23;;
55720;SDS011;41626;53.098;6.168;2023-01-04T14:37:12;20.70;;;5.63;;
55720;SDS011;41626;53.098;6.168;2023-01-04T14:39:38;24.92;;;4.72;;
55720;SDS011;41626;53.098;6.168;2023-01-04T14:42:04;22.13;;;5.25;;
55720;SDS011;41626;53.098;6.168;2023-01-04T14:44:46;23.90;;;6.83;;
55720;SDS011;41626;53.098;6.168;2023-01-04T14:47:12;32.13;;;7.53;;
55720;SDS011;41626;53.098;6.168;2023-01-04T14:49:38;24.60;;;6.67;;
55720;SDS011;41626;53.098;6.168;2023-01-04T14:52:08;21.77;;;5.27;;
55720;SDS011;41626;53.098;6.168;2023-01-04T14:54:36;22.00;;;6.05;;
55720;SDS011;41626;53.098;6.168;2023-01-04T14:57:03;24.70;;;6.07;;
55720;SDS011;41626;53.098;6.168;2023-01-04T14:59:29;19.02;;;4.93;;
55720;SDS011;41626;53.098;6.168;2023-01-04T15:01:55;24.57;;;5.20;;
55720;SDS011;41626;53.098;6.168;2023-01-04T15:04:21;22.20;;;6.85;;
55720;SDS011;41626;53.098;6.168;2023-01-04T15:06:51;25.25;;;6.63;;
55720;SDS011;41626;53.098;6.168;2023-01-04T15:09:22;26.58;;;6.35;;
55720;SDS011;41626;53.098;6.168;2023-01-04T15:11:48;26.40;;;6.43;;
55720;SDS011;41626;53.098;6.168;2023-01-04T15:14:14;29.38;;;7.75;;
55720;SDS011;41626;53.098;6.168;2023-01-04T15:16:40;25.73;;;5.37;;
55720;SDS011;41626;53.098;6.168;2023-01-04T15:19:05;20.57;;;4.73;;
55720;SDS011;41626;53.098;6.168;2023-01-04T15:21:31;24.57;;;6.37;;
55720;SDS011;41626;53.098;6.168;2023-01-04T15:23:57;24.43;;;6.10;;
55720;SDS011;41626;53.098;6.168;2023-01-04T15:26:23;23.33;;;5.90;;
55720;SDS011;41626;53.098;6.168;2023-01-04T15:28:48;19.97;;;4.87;;
55720;SDS011;41626;53.098;6.168;2023-01-04T15:31:14;22.55;;;5.85;;
55720;SDS011;41626;53.098;6.168;2023-01-04T15:33:40;28.02;;;6.35;;
55720;SDS011;41626;53.098;6.168;2023-01-04T15:36:10;24.98;;;5.93;;
55720;SDS011;41626;53.098;6.168;2023-01-04T15:38:38;27.77;;;6.70;;
55720;SDS011;41626;53.098;6.168;2023-01-04T15:41:05;23.90;;;5.17;;
55720;SDS011;41626;53.098;6.168;2023-01-04T15:43:33;25.23;;;6.90;;
55720;SDS011;41626;53.098;6.168;2023-01-04T15:46:06;27.63;;;5.40;;
55720;SDS011;41626;53.098;6.168;2023-01-04T15:48:33;26.10;;;5.63;;
55720;SDS011;41626;53.098;6.168;2023-01-04T15:51:05;22.00;;;5.80;;
55720;SDS011;41626;53.098;6.168;2023-01-04T15:53:34;23.55;;;5.53;;
55720;SDS011;41626;53.098;6.168;2023-01-04T15:56:06;25.17;;;5.88;;
55720;SDS011;41626;53.098;6.168;2023-01-04T15:58:34;29.63;;;6.63;;
55720;SDS011;41626;53.098;6.168;2023-01-04T16:01:05;23.87;;;6.03;;
55720;SDS011;41626;53.098;6.168;2023-01-04T16:03:35;31.58;;;6.53;;
55720;SDS011;41626;53.098;6.168;2023-01-04T16:06:08;28.85;;;7.97;;
55720;SDS011;41626;53.098;6.168;2023-01-04T16:08:36;27.33;;;7.40;;
55720;SDS011;41626;53.098;6.168;2023-01-04T16:11:18;31.25;;;7.43;;
55720;SDS011;41626;53.098;6.168;2023-01-04T16:13:47;24.50;;;6.60;;
55720;SDS011;41626;53.098;6.168;2023-01-04T16:16:13;31.65;;;7.95;;
55720;SDS011;41626;53.098;6.168;2023-01-04T16:18:43;24.15;;;5.85;;
55720;SDS011;41626;53.098;6.168;2023-01-04T16:21:10;25.13;;;6.25;;
55720;SDS011;41626;53.098;6.168;2023-01-04T16:23:36;25.05;;;6.05;;
55720;SDS011;41626;53.098;6.168;2023-01-04T16:26:12;30.00;;;7.03;;
55720;SDS011;41626;53.098;6.168;2023-01-04T16:28:38;28.10;;;6.38;;
55720;SDS011;41626;53.098;6.168;2023-01-04T16:31:05;29.60;;;6.57;;
55720;SDS011;41626;53.098;6.168;2023-01-04T16:33:31;34.33;;;7.53;;
55720;SDS011;41626;53.098;6.168;2023-01-04T16:36:00;27.80;;;6.57;;
55720;SDS011;41626;53.098;6.168;2023-01-04T16:38:37;28.23;;;7.65;;
55720;SDS011;41626;53.098;6.168;2023-01-04T16:41:04;22.13;;;6.70;;
55720;SDS011;41626;53.098;6.168;2023-01-04T16:43:31;24.15;;;6.80;;
55720;SDS011;41626;53.098;6.168;2023-01-04T16:48:41;27.27;;;6.65;;
55720;SDS011;41626;53.098;6.168;2023-01-04T16:51:12;30.03;;;8.10;;
55720;SDS011;41626;53.098;6.168;2023-01-04T16:53:38;30.00;;;7.38;;
55720;SDS011;41626;53.098;6.168;2023-01-04T16:56:09;25.73;;;6.18;;
55720;SDS011;41626;53.098;6.168;2023-01-04T16:58:36;27.20;;;7.30;;
55720;SDS011;41626;53.098;6.168;2023-01-04T17:01:06;24.40;;;6.18;;
55720;SDS011;41626;53.098;6.168;2023-01-04T17:03:33;30.55;;;8.05;;